createdAt,value
2023-03-22T00:02:23.158Z,13.38
2023-03-22T00:04:49.945Z,15.05
2023-03-22T00:07:16.731Z,18.92
2023-03-22T00:09:43.556Z,18.95
2023-03-22T00:12:10.487Z,16.20
2023-03-22T00:14:37.316Z,18.50
2023-03-22T00:17:04.204Z,22.05
2023-03-22T00:19:34.177Z,24.77
2023-03-22T00:22:01.348Z,24.42
2023-03-22T00:24:28.047Z,19.70
2023-03-22T00:26:54.779Z,28.48
2023-03-22T00:29:22.928Z,21.02
2023-03-22T00:31:50.346Z,20.23
2023-03-22T00:34:17.076Z,22.52
2023-03-22T00:36:43.864Z,29.30
2023-03-22T00:39:10.666Z,23.55
2023-03-22T00:41:37.406Z,25.55
2023-03-22T00:44:04.124Z,21.67
2023-03-22T00:46:30.849Z,26.35
2023-03-22T00:48:57.586Z,25.77
2023-03-22T00:51:24.587Z,25.15
2023-03-22T00:53:52.429Z,21.63
2023-03-22T00:56:19.668Z,20.75
2023-03-22T00:58:46.458Z,24.55
2023-03-22T01:01:15.904Z,28.20
2023-03-22T01:03:43.864Z,23.08
2023-03-22T01:06:11.628Z,23.98
2023-03-22T01:08:39.487Z,19.75
2023-03-22T01:11:07.708Z,26.58
2023-03-22T01:13:37.881Z,19.75
2023-03-22T01:16:06.345Z,24.23
2023-03-22T01:18:33.113Z,26.20
2023-03-22T01:21:00.508Z,22.63
2023-03-22T01:23:27.279Z,25.83
2023-03-22T01:25:53.962Z,26.52
2023-03-22T01:28:20.888Z,28.40
2023-03-22T01:30:47.705Z,24.23
2023-03-22T01:33:14.464Z,27.63
2023-03-22T01:35:41.201Z,26.15
2023-03-22T01:38:07.920Z,27.92
2023-03-22T01:40:35.117Z,22.50
2023-03-22T01:43:01.937Z,31.67
2023-03-22T01:45:42.606Z,26.13
2023-03-22T01:48:27.302Z,24.80
2023-03-22T01:51:04.577Z,29.95
2023-03-22T01:53:36.705Z,31.25
2023-03-22T01:56:03.890Z,26.67
2023-03-22T01:58:32.048Z,33.45
2023-03-22T02:00:59.524Z,28.08
2023-03-22T02:03:36.965Z,36.17
2023-03-22T02:06:03.796Z,19.83
2023-03-22T02:08:32.445Z,28.35
2023-03-22T02:11:01.630Z,25.48
2023-03-22T02:13:56.232Z,35.03
2023-03-22T02:16:38.485Z,26.00
2023-03-22T02:19:23.880Z,20.98
2023-03-22T02:22:22.042Z,32.58
2023-03-22T02:25:08.018Z,25.27
2023-03-22T02:28:05.076Z,37.70
2023-03-22T02:30:50.020Z,21.17
2023-03-22T02:33:41.573Z,26.90
2023-03-22T02:36:35.556Z,31.67
2023-03-22T02:39:23.472Z,29.45
2023-03-22T02:42:06.974Z,29.33
2023-03-22T02:47:25.565Z,28.85
2023-03-22T02:50:06.268Z,32.33
2023-03-22T02:52:40.943Z,43.95
2023-03-22T02:55:24.243Z,25.77
2023-03-22T02:58:03.695Z,36.30
2023-03-22T03:00:33.402Z,26.67
2023-03-22T03:03:11.489Z,27.13
2023-03-22T03:05:44.975Z,39.95
2023-03-22T03:08:14.040Z,26.05
2023-03-22T03:10:42.373Z,25.33
2023-03-22T03:13:17.387Z,30.33
2023-03-22T03:15:48.875Z,36.55
2023-03-22T03:18:35.229Z,35.17
2023-03-22T03:21:17.900Z,34.13
2023-03-22T03:24:08.870Z,35.38
2023-03-22T03:26:42.030Z,45.72
2023-03-22T03:29:50.803Z,38.65
2023-03-22T03:32:35.325Z,22.65
2023-03-22T03:35:06.879Z,31.58
2023-03-22T03:37:48.423Z,26.95
2023-03-22T03:40:20.954Z,36.15
2023-03-22T03:42:52.826Z,24.55
2023-03-22T03:45:22.306Z,31.80
2023-03-22T03:47:57.040Z,37.00
2023-03-22T03:50:26.012Z,31.00
2023-03-22T03:52:54.829Z,32.58
2023-03-22T03:55:22.793Z,20.50
2023-03-22T03:57:49.578Z,31.27
2023-03-22T04:00:17.753Z,30.33
2023-03-22T04:02:45.123Z,32.80
2023-03-22T04:05:13.521Z,24.65
2023-03-22T04:07:40.681Z,28.90
2023-03-22T04:10:08.626Z,19.95
2023-03-22T04:12:35.753Z,32.47
2023-03-22T04:15:02.714Z,28.63
2023-03-22T04:17:29.461Z,27.67
2023-03-22T04:19:56.753Z,29.15
2023-03-22T04:22:25.156Z,42.83
2023-03-22T04:24:51.871Z,26.23
2023-03-22T04:27:20.611Z,30.33
2023-03-22T04:29:51.286Z,28.40
2023-03-22T04:32:19.236Z,22.10
2023-03-22T04:34:49.203Z,23.35
2023-03-22T04:37:16.722Z,27.98
2023-03-22T04:39:44.047Z,30.33
2023-03-22T04:42:10.847Z,21.52
2023-03-22T04:44:37.565Z,29.23
2023-03-22T04:47:04.533Z,22.92
2023-03-22T04:49:31.581Z,38.88
2023-03-22T04:51:58.603Z,37.47
2023-03-22T04:54:25.849Z,36.58
2023-03-22T04:56:52.888Z,34.30
2023-03-22T04:59:20.456Z,36.53
2023-03-22T05:01:48.507Z,30.90
2023-03-22T05:04:16.628Z,28.75
2023-03-22T05:06:43.459Z,26.92
2023-03-22T05:09:10.590Z,31.40
2023-03-22T05:11:37.809Z,23.27
2023-03-22T05:14:04.900Z,24.90
2023-03-22T05:16:31.713Z,26.52
2023-03-22T05:18:58.557Z,17.10
2023-03-22T05:21:28.625Z,21.13
2023-03-22T05:23:58.106Z,20.80
2023-03-22T05:26:26.596Z,24.02
2023-03-22T05:28:54.395Z,20.98
2023-03-22T05:31:22.399Z,17.45
2023-03-22T05:33:50.649Z,12.65
2023-03-22T05:36:19.311Z,13.10
2023-03-22T05:38:46.818Z,15.20
2023-03-22T05:41:14.582Z,13.32
2023-03-22T05:43:42.085Z,14.52
2023-03-22T05:46:11.205Z,13.00
2023-03-22T05:48:39.869Z,8.55
2023-03-22T05:51:07.861Z,8.88
2023-03-22T05:53:35.461Z,7.82
2023-03-22T05:56:02.362Z,9.52
2023-03-22T05:58:30.951Z,8.70
2023-03-22T06:01:01.204Z,6.72
2023-03-22T06:03:28.654Z,7.68
2023-03-22T06:05:55.437Z,5.47
2023-03-22T06:08:26.558Z,5.07
2023-03-22T06:10:54.249Z,5.32
2023-03-22T06:13:21.368Z,7.30
2023-03-22T06:15:48.262Z,7.65
2023-03-22T06:18:14.995Z,7.35
2023-03-22T06:20:42.221Z,8.85
2023-03-22T06:23:09.113Z,9.18
2023-03-22T06:25:35.940Z,9.10
2023-03-22T06:28:02.995Z,7.53
2023-03-22T06:30:29.798Z,9.90
2023-03-22T06:33:00.667Z,9.68
2023-03-22T06:35:27.939Z,8.18
2023-03-22T06:37:54.739Z,10.35
2023-03-22T06:40:21.522Z,12.05
2023-03-22T06:42:48.429Z,15.25
2023-03-22T06:45:16.648Z,8.80
2023-03-22T06:47:44.575Z,10.77
2023-03-22T06:50:12.048Z,9.45
2023-03-22T06:52:38.853Z,11.38
2023-03-22T06:55:06.020Z,16.63
2023-03-22T06:57:32.795Z,10.98
2023-03-22T06:59:59.486Z,11.30
2023-03-22T07:02:26.206Z,10.43
2023-03-22T07:04:53.023Z,13.90
2023-03-22T07:07:19.722Z,14.73
2023-03-22T07:09:46.542Z,10.75
2023-03-22T07:12:13.233Z,12.38
2023-03-22T07:14:40.492Z,12.45
2023-03-22T07:17:07.250Z,11.32
2023-03-22T07:19:34.265Z,12.80
2023-03-22T07:22:00.992Z,14.95
2023-03-22T07:24:27.774Z,9.40
2023-03-22T07:26:54.479Z,16.35
2023-03-22T07:29:21.569Z,17.77
2023-03-22T07:31:48.451Z,17.30
2023-03-22T07:34:16.397Z,13.98
2023-03-22T07:36:43.259Z,16.60
2023-03-22T07:39:10.067Z,13.52
2023-03-22T07:41:36.890Z,12.50
2023-03-22T07:44:16.978Z,14.35
2023-03-22T07:46:44.745Z,10.68
2023-03-22T07:49:11.563Z,17.35
2023-03-22T07:51:38.317Z,18.00
2023-03-22T07:54:07.582Z,10.23
2023-03-22T07:56:34.589Z,9.73
2023-03-22T07:59:01.416Z,9.43
2023-03-22T08:01:28.462Z,13.52
2023-03-22T08:03:55.329Z,13.32
2023-03-22T08:06:22.058Z,16.00
2023-03-22T08:08:48.765Z,14.13
2023-03-22T08:11:15.607Z,11.43
2023-03-22T08:13:42.346Z,13.65
2023-03-22T08:16:09.112Z,13.75
2023-03-22T08:18:36.250Z,14.38
2023-03-22T08:21:02.986Z,12.77
2023-03-22T08:23:41.037Z,9.30
2023-03-22T08:26:10.444Z,9.43
2023-03-22T08:28:37.540Z,8.75
2023-03-22T08:31:13.917Z,11.40
2023-03-22T08:33:42.980Z,13.38
2023-03-22T08:36:12.312Z,10.98
2023-03-22T08:38:38.984Z,9.27
2023-03-22T08:41:05.951Z,10.45
2023-03-22T08:43:32.641Z,9.23
2023-03-22T08:45:59.666Z,13.63
2023-03-22T08:48:29.225Z,15.50
2023-03-22T08:50:56.334Z,11.55
2023-03-22T08:53:23.614Z,14.20
2023-03-22T08:55:51.077Z,12.85
2023-03-22T08:58:20.087Z,15.60
2023-03-22T09:00:49.503Z,16.95
2023-03-22T09:03:16.988Z,16.38
2023-03-22T09:05:44.003Z,13.52
2023-03-22T09:08:18.538Z,10.90
2023-03-22T09:10:52.656Z,17.95
2023-03-22T09:13:20.511Z,14.55
2023-03-22T09:15:47.653Z,17.83
2023-03-22T09:18:15.442Z,15.68
2023-03-22T09:20:43.802Z,15.27
2023-03-22T09:23:10.536Z,11.63
2023-03-22T09:25:37.802Z,15.98
2023-03-22T09:28:05.602Z,13.32
2023-03-22T09:30:32.242Z,11.68
2023-03-22T09:32:58.930Z,17.65
2023-03-22T09:35:26.074Z,14.75
2023-03-22T09:37:56.150Z,13.60
2023-03-22T09:40:28.939Z,14.68
2023-03-22T09:42:59.193Z,14.85
2023-03-22T09:45:38.471Z,15.07
2023-03-22T09:48:21.210Z,18.30
2023-03-22T09:50:51.536Z,18.83
2023-03-22T09:53:18.636Z,17.75
2023-03-22T09:55:52.872Z,16.33
2023-03-22T09:58:33.135Z,12.68
2023-03-22T10:01:12.428Z,11.93
2023-03-22T10:04:02.346Z,12.80
2023-03-22T10:06:30.788Z,16.88
2023-03-22T10:09:34.625Z,16.20
2023-03-22T10:12:22.541Z,14.60
2023-03-22T10:14:57.812Z,14.82
2023-03-22T10:17:27.212Z,13.50
2023-03-22T10:19:59.150Z,14.65
2023-03-22T10:22:33.210Z,15.82
2023-03-22T10:25:01.030Z,10.93
2023-03-22T10:27:30.180Z,14.18
2023-03-22T10:30:04.499Z,15.30
2023-03-22T10:32:57.059Z,10.27
2023-03-22T10:35:24.683Z,13.25
2023-03-22T10:37:52.777Z,12.25
2023-03-22T10:40:32.972Z,16.90
2023-03-22T10:43:11.868Z,10.25
2023-03-22T10:45:39.676Z,14.77
2023-03-22T10:48:29.990Z,11.55
2023-03-22T10:50:58.991Z,12.07
2023-03-22T10:53:33.391Z,11.43
2023-03-22T10:56:00.365Z,14.18
2023-03-22T10:58:32.597Z,14.43
2023-03-22T11:01:05.174Z,14.40
2023-03-22T11:03:44.650Z,14.25
2023-03-22T11:06:14.697Z,12.35
2023-03-22T11:08:42.850Z,17.85
2023-03-22T11:11:40.347Z,16.90
2023-03-22T11:14:16.975Z,14.00
2023-03-22T11:16:53.595Z,16.60
2023-03-22T11:19:31.593Z,12.52
2023-03-22T11:22:00.553Z,11.98
2023-03-22T11:24:30.330Z,13.48
2023-03-22T11:27:03.407Z,10.40
2023-03-22T11:29:46.662Z,12.85
2023-03-22T11:32:37.362Z,11.48
2023-03-22T11:35:16.225Z,14.20
2023-03-22T11:37:45.181Z,14.23
2023-03-22T11:40:33.430Z,16.27
2023-03-22T11:43:27.075Z,11.98
2023-03-22T11:48:27.534Z,10.75
2023-03-22T11:50:59.725Z,12.02
2023-03-22T11:53:28.381Z,21.00
2023-03-22T11:55:57.815Z,9.02
2023-03-22T11:58:27.142Z,12.93
2023-03-22T12:01:01.533Z,15.70
2023-03-22T12:03:37.595Z,12.32
2023-03-22T12:06:16.751Z,14.63
2023-03-22T12:08:49.557Z,13.07
2023-03-22T12:11:40.179Z,10.68
2023-03-22T12:14:16.216Z,15.73
2023-03-22T12:17:11.090Z,9.77
2023-03-22T12:20:02.562Z,8.77
2023-03-22T12:22:35.355Z,16.77
2023-03-22T12:25:03.617Z,12.55
2023-03-22T12:27:41.723Z,10.07
2023-03-22T12:30:22.674Z,9.77
2023-03-22T12:32:58.416Z,11.82
2023-03-22T12:35:30.185Z,9.13
2023-03-22T12:38:00.446Z,10.65
2023-03-22T12:40:38.044Z,9.55
2023-03-22T12:43:23.162Z,12.88
2023-03-22T12:45:55.293Z,9.32
2023-03-22T12:48:31.811Z,9.82
2023-03-22T12:51:03.325Z,10.25
2023-03-22T12:53:42.665Z,7.32
2023-03-22T12:56:17.926Z,9.02
2023-03-22T12:58:51.933Z,18.17
2023-03-22T13:01:45.886Z,13.05
2023-03-22T13:04:38.897Z,11.45
2023-03-22T13:07:13.978Z,13.60
2023-03-22T13:09:46.152Z,13.02
2023-03-22T13:12:16.455Z,12.00
2023-03-22T13:14:52.217Z,14.07
2023-03-22T13:17:25.436Z,8.05
2023-03-22T13:20:08.059Z,12.70
2023-03-22T13:22:38.044Z,9.07
2023-03-22T13:25:12.649Z,11.95
2023-03-22T13:27:45.358Z,11.40
2023-03-22T13:30:26.123Z,11.98
2023-03-22T13:33:11.200Z,12.13
2023-03-22T13:35:49.034Z,18.83
2023-03-22T13:38:32.619Z,16.48
2023-03-22T13:43:50.192Z,14.15
2023-03-22T13:46:20.663Z,10.02
2023-03-22T13:48:47.917Z,14.02
2023-03-22T13:51:21.668Z,8.65
2023-03-22T13:54:24.018Z,9.73
2023-03-22T13:57:01.041Z,12.00
2023-03-22T13:59:27.904Z,11.27
2023-03-22T14:01:57.593Z,13.65
2023-03-22T14:04:36.556Z,9.18
2023-03-22T14:07:40.662Z,12.32
2023-03-22T14:10:28.301Z,7.90
2023-03-22T14:12:59.643Z,15.85
2023-03-22T14:15:31.512Z,13.48
2023-03-22T14:18:12.558Z,10.90
2023-03-22T14:20:40.219Z,10.88
